AFL703 URSS-UUEE
Flight info
| Callsign | AFL703 |
|---|---|
| Flight time | N/A |
| Altitude | 41000 |
| Route | IRGID1S IRGID A944 BEMES R227 KZ DCT MOMER/K0917F400 DCT GOLMA N50 OLOPI OLOPI3F |
| Aircraft | A359/H-SDE2E3GHIJ3J4J5LM1ORWXY/LB1D1 |
Departure
| Time | 2026-05-06 18:38 |
|---|---|
| Airport | Sochi International Airport (URSS) |
Arrival
| Time | N/A |
|---|---|
| Airport | Sheremetyevo International Airport (UUEE) |
| Time | Latitude | Longitude | Altitude | Speed | Heading |
|---|---|---|---|---|---|
| 2026-05-06 18:01 | 43.44894 | 39.94521 | 81 ft | 0 kts | 298° |
| 2026-05-06 18:21 | 43.44893 | 39.94524 | 84 ft | 2 kts | 297° |
| 2026-05-06 18:21 | 43.44886 | 39.94544 | 86 ft | 2 kts | 297° |
| 2026-05-06 18:21 | 43.44878 | 39.94565 | 85 ft | 2 kts | 297° |
| 2026-05-06 18:22 | 43.44858 | 39.94603 | 81 ft | 2 kts | 323° |
| 2026-05-06 18:22 | 43.44844 | 39.94615 | 86 ft | 2 kts | 333° |
| 2026-05-06 18:22 | 43.44829 | 39.94624 | 83 ft | 2 kts | 343° |
| 2026-05-06 18:23 | 43.44813 | 39.94629 | 85 ft | 2 kts | 351° |
| 2026-05-06 18:23 | 43.44797 | 39.94632 | 84 ft | 2 kts | 358° |
| 2026-05-06 18:23 | 43.44780 | 39.94630 | 85 ft | 2 kts | 14° |
| 2026-05-06 18:23 | 43.44769 | 39.94624 | 85 ft | 1 kts | 46° |
| 2026-05-06 18:24 | 43.44767 | 39.94623 | 85 ft | 0 kts | 52° |
| 2026-05-06 18:26 | 43.44773 | 39.94637 | 86 ft | 5 kts | 60° |
| 2026-05-06 18:27 | 43.44798 | 39.94707 | 83 ft | 10 kts | 65° |
| 2026-05-06 18:27 | 43.44830 | 39.94806 | 83 ft | 11 kts | 65° |
| 2026-05-06 18:27 | 43.44865 | 39.94907 | 88 ft | 12 kts | 65° |
| 2026-05-06 18:27 | 43.44900 | 39.95011 | 89 ft | 12 kts | 65° |
| 2026-05-06 18:28 | 43.44939 | 39.95121 | 91 ft | 13 kts | 64° |
| 2026-05-06 18:28 | 43.44976 | 39.95228 | 93 ft | 10 kts | 64° |
| 2026-05-06 18:28 | 43.45003 | 39.95306 | 97 ft | 1 kts | 64° |
| 2026-05-06 18:28 | 43.45005 | 39.95310 | 97 ft | 0 kts | 64° |
| 2026-05-06 18:30 | 43.45019 | 39.95351 | 95 ft | 9 kts | 64° |
| 2026-05-06 18:30 | 43.45048 | 39.95429 | 97 ft | 9 kts | 63° |
| 2026-05-06 18:30 | 43.45083 | 39.95500 | 101 ft | 10 kts | 46° |
| 2026-05-06 18:30 | 43.45144 | 39.95557 | 101 ft | 12 kts | 30° |
| 2026-05-06 18:31 | 43.45218 | 39.95630 | 99 ft | 12 kts | 50° |
| 2026-05-06 18:31 | 43.45221 | 39.95636 | 99 ft | 0 kts | 51° |
| 2026-05-06 18:31 | 43.45225 | 39.95642 | 99 ft | 4 kts | 52° |
| 2026-05-06 18:31 | 43.45256 | 39.95709 | 100 ft | 10 kts | 59° |
| 2026-05-06 18:32 | 43.45294 | 39.95806 | 103 ft | 13 kts | 74° |
| 2026-05-06 18:32 | 43.45255 | 39.95938 | 100 ft | 11 kts | 148° |
| 2026-05-06 18:32 | 43.45218 | 39.95934 | 97 ft | 0 kts | 198° |
| 2026-05-06 18:36 | 43.45217 | 39.95934 | 97 ft | 1 kts | 198° |
| 2026-05-06 18:36 | 43.45163 | 39.95898 | 97 ft | 13 kts | 208° |
| 2026-05-06 18:36 | 43.45072 | 39.95832 | 97 ft | 16 kts | 211° |
| 2026-05-06 18:37 | 43.45041 | 39.95780 | 99 ft | 0 kts | 243° |
| 2026-05-06 18:37 | 43.45037 | 39.95771 | 99 ft | 10 kts | 243° |
| 2026-05-06 18:37 | 43.44888 | 39.95340 | 96 ft | 88 kts | 245° |
| 2026-05-06 18:38 | 43.44528 | 39.94285 | 87 ft | 153 kts | 244° |
| 2026-05-06 18:38 | 43.44015 | 39.92852 | 489 ft | 178 kts | 244° |
| 2026-05-06 18:38 | 43.43486 | 39.91227 | 1183 ft | 188 kts | 251° |
| 2026-05-06 18:38 | 43.43448 | 39.89400 | 1801 ft | 202 kts | 285° |
| 2026-05-06 18:39 | 43.44145 | 39.87606 | 2041 ft | 226 kts | 303° |
| 2026-05-06 18:39 | 43.45116 | 39.85754 | 2337 ft | 248 kts | 306° |
| 2026-05-06 18:39 | 43.46149 | 39.83795 | 2966 ft | 255 kts | 305° |
| 2026-05-06 18:40 | 43.48205 | 39.79756 | 4413 ft | 260 kts | 304° |
| 2026-05-06 18:40 | 43.49230 | 39.77702 | 5120 ft | 262 kts | 304° |
| 2026-05-06 18:40 | 43.50260 | 39.75623 | 5799 ft | 264 kts | 304° |
| 2026-05-06 18:40 | 43.51297 | 39.73524 | 6493 ft | 266 kts | 305° |
| 2026-05-06 18:41 | 43.52344 | 39.71402 | 7132 ft | 269 kts | 304° |
| 2026-05-06 18:41 | 43.53399 | 39.69260 | 7787 ft | 272 kts | 304° |
| 2026-05-06 18:41 | 43.54468 | 39.67088 | 8439 ft | 274 kts | 304° |
| 2026-05-06 18:41 | 43.55542 | 39.64902 | 9125 ft | 277 kts | 304° |
| 2026-05-06 18:42 | 43.56627 | 39.62692 | 9783 ft | 280 kts | 304° |
| 2026-05-06 18:42 | 43.57723 | 39.60458 | 10377 ft | 285 kts | 304° |
| 2026-05-06 18:42 | 43.59756 | 39.56306 | 10807 ft | 314 kts | 304° |
| 2026-05-06 18:43 | 43.61025 | 39.53762 | 11033 ft | 330 kts | 307° |
| 2026-05-06 18:43 | 43.62706 | 39.51535 | 11208 ft | 345 kts | 327° |
| 2026-05-06 18:43 | 43.64979 | 39.50375 | 11484 ft | 355 kts | 352° |
| 2026-05-06 18:43 | 43.67407 | 39.50569 | 11933 ft | 359 kts | 14° |
| 2026-05-06 18:44 | 43.69704 | 39.51946 | 12424 ft | 362 kts | 32° |
| 2026-05-06 18:44 | 43.71608 | 39.54222 | 12918 ft | 365 kts | 50° |
| 2026-05-06 18:44 | 43.72913 | 39.57222 | 13402 ft | 367 kts | 69° |
| 2026-05-06 18:44 | 43.73592 | 39.60631 | 13911 ft | 369 kts | 78° |
| 2026-05-06 18:45 | 43.74088 | 39.64125 | 14356 ft | 371 kts | 79° |
| 2026-05-06 18:45 | 43.74574 | 39.67640 | 14795 ft | 374 kts | 79° |
| 2026-05-06 18:45 | 43.75078 | 39.71185 | 15239 ft | 377 kts | 78° |
| 2026-05-06 18:45 | 43.75597 | 39.74753 | 15679 ft | 379 kts | 78° |
| 2026-05-06 18:46 | 43.76125 | 39.78332 | 16133 ft | 382 kts | 78° |
| 2026-05-06 18:46 | 43.76661 | 39.81940 | 16606 ft | 384 kts | 78° |
| 2026-05-06 18:46 | 43.77200 | 39.85570 | 17050 ft | 386 kts | 78° |
| 2026-05-06 18:46 | 43.77744 | 39.89226 | 17498 ft | 389 kts | 78° |
| 2026-05-06 18:47 | 43.78289 | 39.92898 | 17983 ft | 391 kts | 78° |
| 2026-05-06 18:47 | 43.78807 | 39.96600 | 18439 ft | 393 kts | 79° |
| 2026-05-06 18:47 | 43.79291 | 40.00333 | 18815 ft | 396 kts | 79° |
| 2026-05-06 18:47 | 43.79762 | 40.04101 | 19187 ft | 398 kts | 80° |
| 2026-05-06 18:48 | 43.80230 | 40.07888 | 19575 ft | 400 kts | 79° |
| 2026-05-06 18:48 | 43.80704 | 40.11696 | 19943 ft | 403 kts | 79° |
| 2026-05-06 18:48 | 43.81186 | 40.15529 | 20321 ft | 405 kts | 79° |
| 2026-05-06 18:48 | 43.81673 | 40.19373 | 20691 ft | 407 kts | 79° |
| 2026-05-06 18:49 | 43.82164 | 40.23240 | 21077 ft | 409 kts | 79° |
| 2026-05-06 18:49 | 43.82658 | 40.27131 | 21436 ft | 411 kts | 79° |
| 2026-05-06 18:49 | 43.83154 | 40.31036 | 21802 ft | 413 kts | 79° |
| 2026-05-06 18:49 | 43.83651 | 40.34961 | 22178 ft | 415 kts | 79° |
| 2026-05-06 18:50 | 43.84149 | 40.38903 | 22545 ft | 417 kts | 79° |
| 2026-05-06 18:50 | 43.84648 | 40.42865 | 22881 ft | 419 kts | 79° |
| 2026-05-06 18:50 | 43.85150 | 40.46851 | 23221 ft | 421 kts | 79° |
| 2026-05-06 18:50 | 43.85651 | 40.50856 | 23562 ft | 423 kts | 79° |
| 2026-05-06 18:51 | 43.86153 | 40.54887 | 23873 ft | 425 kts | 79° |
| 2026-05-06 18:51 | 43.86655 | 40.58935 | 24177 ft | 427 kts | 79° |
| 2026-05-06 18:51 | 43.87151 | 40.62948 | 24484 ft | 428 kts | 79° |
| 2026-05-06 18:51 | 43.87652 | 40.67018 | 24814 ft | 429 kts | 79° |
| 2026-05-06 18:52 | 43.88070 | 40.71124 | 25135 ft | 431 kts | 83° |
| 2026-05-06 18:52 | 43.88334 | 40.75276 | 25458 ft | 432 kts | 84° |
| 2026-05-06 18:52 | 43.88551 | 40.79440 | 25786 ft | 434 kts | 85° |
| 2026-05-06 18:52 | 43.88740 | 40.83623 | 26132 ft | 435 kts | 85° |
| 2026-05-06 18:53 | 43.88916 | 40.87818 | 26480 ft | 437 kts | 85° |
| 2026-05-06 18:53 | 43.89088 | 40.92027 | 26853 ft | 438 kts | 85° |
| 2026-05-06 18:53 | 43.89261 | 40.96245 | 27233 ft | 439 kts | 85° |
| 2026-05-06 18:53 | 43.89436 | 41.00478 | 27622 ft | 441 kts | 85° |
| 2026-05-06 18:54 | 43.89613 | 41.04738 | 28012 ft | 443 kts | 85° |
| 2026-05-06 18:54 | 43.89790 | 41.09003 | 28421 ft | 445 kts | 85° |
| 2026-05-06 18:54 | 43.89969 | 41.13300 | 28831 ft | 447 kts | 85° |
| 2026-05-06 18:54 | 43.90147 | 41.17614 | 29218 ft | 449 kts | 85° |
| 2026-05-06 18:55 | 43.90324 | 41.21943 | 29638 ft | 451 kts | 85° |
| 2026-05-06 18:55 | 43.90500 | 41.26292 | 30059 ft | 453 kts | 85° |
| 2026-05-06 18:55 | 43.90676 | 41.30667 | 30423 ft | 456 kts | 86° |
| 2026-05-06 18:55 | 43.90850 | 41.35071 | 30741 ft | 459 kts | 86° |
| 2026-05-06 18:56 | 43.91024 | 41.39497 | 31032 ft | 462 kts | 86° |
| 2026-05-06 18:56 | 43.91198 | 41.43960 | 31328 ft | 465 kts | 86° |
| 2026-05-06 18:57 | 43.91732 | 41.57990 | 32209 ft | 472 kts | 86° |
| 2026-05-06 18:57 | 43.91901 | 41.62556 | 32449 ft | 475 kts | 86° |
| 2026-05-06 18:57 | 43.92064 | 41.67152 | 32701 ft | 478 kts | 87° |
| 2026-05-06 18:57 | 43.92222 | 41.71762 | 32959 ft | 480 kts | 87° |
| 2026-05-06 18:58 | 43.92378 | 41.76386 | 33285 ft | 480 kts | 87° |
| 2026-05-06 18:58 | 43.92534 | 41.81019 | 33650 ft | 480 kts | 87° |
| 2026-05-06 18:58 | 43.92700 | 41.85649 | 34015 ft | 480 kts | 86° |
| 2026-05-06 18:58 | 43.93122 | 41.90240 | 34289 ft | 481 kts | 79° |
| 2026-05-06 18:59 | 43.93987 | 41.94723 | 34537 ft | 482 kts | 71° |
| 2026-05-06 18:59 | 43.95346 | 41.98979 | 34776 ft | 484 kts | 62° |
| 2026-05-06 18:59 | 43.97202 | 42.02883 | 35027 ft | 486 kts | 52° |
| 2026-05-06 18:59 | 43.99459 | 42.06380 | 35285 ft | 487 kts | 47° |
| 2026-05-06 19:00 | 44.01886 | 42.09671 | 35525 ft | 488 kts | 44° |
| 2026-05-06 19:00 | 44.04397 | 42.12859 | 35785 ft | 489 kts | 43° |
| 2026-05-06 19:00 | 44.06947 | 42.16008 | 36046 ft | 490 kts | 42° |
| 2026-05-06 19:00 | 44.08638 | 42.18086 | 36199 ft | 490 kts | 42° |
| 2026-05-06 19:01 | 44.12022 | 42.22277 | 36530 ft | 492 kts | 43° |
| 2026-05-06 19:01 | 44.14599 | 42.25514 | 36774 ft | 493 kts | 43° |
| 2026-05-06 19:01 | 44.17093 | 42.28681 | 36995 ft | 493 kts | 43° |
| 2026-05-06 19:01 | 44.19628 | 42.31925 | 37228 ft | 494 kts | 43° |
| 2026-05-06 19:02 | 44.22150 | 42.35170 | 37459 ft | 495 kts | 44° |
| 2026-05-06 19:02 | 44.24687 | 42.38442 | 37682 ft | 496 kts | 44° |
| 2026-05-06 19:02 | 44.27223 | 42.41715 | 37904 ft | 497 kts | 44° |
| 2026-05-06 19:02 | 44.29762 | 42.44999 | 38140 ft | 498 kts | 44° |
| 2026-05-06 19:03 | 44.32308 | 42.48295 | 38316 ft | 500 kts | 43° |
| 2026-05-06 19:03 | 44.34857 | 42.51598 | 38540 ft | 500 kts | 43° |
| 2026-05-06 19:03 | 44.37411 | 42.54909 | 38742 ft | 501 kts | 43° |
| 2026-05-06 19:03 | 44.39966 | 42.58225 | 38934 ft | 502 kts | 43° |
| 2026-05-06 19:04 | 44.42524 | 42.61549 | 39097 ft | 502 kts | 43° |
| 2026-05-06 19:04 | 44.45082 | 42.64876 | 39282 ft | 502 kts | 43° |
| 2026-05-06 19:04 | 44.47642 | 42.68210 | 39447 ft | 502 kts | 43° |
| 2026-05-06 19:04 | 44.50201 | 42.71548 | 39619 ft | 502 kts | 43° |
| 2026-05-06 19:05 | 44.52754 | 42.74881 | 39782 ft | 502 kts | 43° |
| 2026-05-06 19:05 | 44.55309 | 42.78222 | 39946 ft | 503 kts | 43° |
| 2026-05-06 19:05 | 44.57870 | 42.81574 | 40106 ft | 503 kts | 43° |
| 2026-05-06 19:05 | 44.60426 | 42.84925 | 40241 ft | 503 kts | 43° |
| 2026-05-06 19:06 | 44.62988 | 42.88286 | 40392 ft | 504 kts | 43° |
| 2026-05-06 19:06 | 44.65545 | 42.91646 | 40521 ft | 504 kts | 43° |
| 2026-05-06 19:06 | 44.68105 | 42.95015 | 40636 ft | 505 kts | 43° |
| 2026-05-06 19:06 | 44.70667 | 42.98391 | 40779 ft | 505 kts | 43° |
| 2026-05-06 19:07 | 44.73228 | 43.01770 | 40913 ft | 505 kts | 43° |
| 2026-05-06 19:07 | 44.78357 | 43.08548 | 41068 ft | 505 kts | 43° |
| 2026-05-06 19:08 | 44.83471 | 43.15325 | 41036 ft | 505 kts | 43° |
| 2026-05-06 19:08 | 44.88588 | 43.22123 | 41051 ft | 505 kts | 44° |
| 2026-05-06 19:09 | 44.92840 | 43.27783 | 41045 ft | 505 kts | 44° |
| 2026-05-06 19:09 | 44.97950 | 43.34604 | 41040 ft | 505 kts | 44° |
| 2026-05-06 19:10 | 45.03053 | 43.41434 | 41036 ft | 505 kts | 44° |
| 2026-05-06 19:10 | 45.08157 | 43.48282 | 41034 ft | 505 kts | 44° |
| 2026-05-06 19:11 | 45.13252 | 43.55134 | 41027 ft | 505 kts | 44° |
| 2026-05-06 19:11 | 45.18348 | 43.62005 | 41017 ft | 506 kts | 44° |
| 2026-05-06 19:12 | 45.23410 | 43.68850 | 41011 ft | 506 kts | 44° |
| 2026-05-06 19:12 | 45.28503 | 43.75754 | 41022 ft | 506 kts | 44° |
| 2026-05-06 19:13 | 45.33590 | 43.82668 | 41005 ft | 506 kts | 44° |
| 2026-05-06 19:13 | 45.38681 | 43.89606 | 41017 ft | 507 kts | 44° |
| 2026-05-06 19:14 | 45.43770 | 43.96558 | 41009 ft | 507 kts | 44° |
| 2026-05-06 19:14 | 45.48860 | 44.03531 | 40998 ft | 507 kts | 44° |
| 2026-05-06 19:15 | 45.53941 | 44.10509 | 40991 ft | 508 kts | 44° |
| 2026-05-06 19:15 | 45.59021 | 44.17507 | 40992 ft | 508 kts | 44° |
| 2026-05-06 19:16 | 45.64104 | 44.24525 | 40990 ft | 507 kts | 44° |
| 2026-05-06 19:16 | 45.69168 | 44.31537 | 40990 ft | 506 kts | 44° |
| 2026-05-06 19:17 | 45.74191 | 44.38510 | 40987 ft | 506 kts | 44° |
| 2026-05-06 19:17 | 45.79233 | 44.45527 | 40990 ft | 505 kts | 44° |
| 2026-05-06 19:18 | 45.84269 | 44.52555 | 40985 ft | 505 kts | 44° |
| 2026-05-06 19:18 | 45.89297 | 44.59592 | 40973 ft | 505 kts | 44° |
| 2026-05-06 19:19 | 45.94319 | 44.66638 | 40977 ft | 504 kts | 44° |
| 2026-05-06 19:19 | 45.99334 | 44.73694 | 40970 ft | 504 kts | 44° |
| 2026-05-06 19:20 | 46.04338 | 44.80752 | 40955 ft | 504 kts | 44° |
| 2026-05-06 19:20 | 46.09336 | 44.87820 | 40961 ft | 503 kts | 45° |
| 2026-05-06 19:21 | 46.14326 | 44.94896 | 40947 ft | 503 kts | 45° |
| 2026-05-06 19:21 | 46.19308 | 45.01982 | 40958 ft | 503 kts | 45° |
| 2026-05-06 19:22 | 46.24285 | 45.09077 | 40943 ft | 502 kts | 45° |
| 2026-05-06 19:22 | 46.29250 | 45.16175 | 40941 ft | 502 kts | 45° |
| 2026-05-06 19:23 | 46.34213 | 45.23290 | 40933 ft | 502 kts | 45° |
| 2026-05-06 19:23 | 46.39164 | 45.30407 | 40937 ft | 502 kts | 45° |
| 2026-05-06 19:24 | 46.44550 | 45.36795 | 40926 ft | 502 kts | 31° |
| 2026-05-06 19:24 | 46.50931 | 45.40608 | 40924 ft | 501 kts | 12° |
| 2026-05-06 19:25 | 46.57844 | 45.41108 | 40923 ft | 499 kts | 352° |
| 2026-05-06 19:25 | 46.64494 | 45.38390 | 40931 ft | 498 kts | 338° |
| 2026-05-06 19:26 | 46.70820 | 45.34277 | 40936 ft | 498 kts | 334° |
| 2026-05-06 19:26 | 46.77059 | 45.29923 | 40921 ft | 498 kts | 334° |
| 2026-05-06 19:27 | 46.83329 | 45.25624 | 40918 ft | 498 kts | 335° |
| 2026-05-06 19:27 | 46.89623 | 45.21389 | 40921 ft | 498 kts | 335° |
| 2026-05-06 19:28 | 46.95923 | 45.17169 | 40924 ft | 498 kts | 335° |
| 2026-05-06 19:28 | 47.02217 | 45.12942 | 40929 ft | 497 kts | 335° |
| 2026-05-06 19:29 | 47.08506 | 45.08703 | 40930 ft | 497 kts | 335° |
| 2026-05-06 19:29 | 47.14793 | 45.04452 | 40931 ft | 497 kts | 335° |
| 2026-05-06 19:30 | 47.21025 | 45.00195 | 40928 ft | 497 kts | 334° |
| 2026-05-06 19:30 | 47.27337 | 44.95868 | 40923 ft | 497 kts | 334° |
| 2026-05-06 19:31 | 47.33576 | 44.91604 | 40924 ft | 497 kts | 335° |
| 2026-05-06 19:31 | 47.42998 | 44.85163 | 40928 ft | 498 kts | 335° |
| 2026-05-06 19:32 | 47.49272 | 44.80859 | 40923 ft | 498 kts | 335° |
| 2026-05-06 19:32 | 47.55553 | 44.76533 | 40926 ft | 498 kts | 335° |
| 2026-05-06 19:33 | 47.61837 | 44.72196 | 40926 ft | 497 kts | 335° |
| 2026-05-06 19:33 | 47.68075 | 44.67882 | 40929 ft | 497 kts | 335° |
| 2026-05-06 19:34 | 47.74351 | 44.63533 | 40931 ft | 497 kts | 335° |
| 2026-05-06 19:34 | 47.80620 | 44.59184 | 40941 ft | 497 kts | 335° |
| 2026-05-06 19:35 | 47.86887 | 44.54822 | 40931 ft | 497 kts | 335° |
| 2026-05-06 19:35 | 47.93150 | 44.50447 | 40937 ft | 497 kts | 335° |
| 2026-05-06 19:36 | 47.99415 | 44.46057 | 40944 ft | 497 kts | 335° |
| 2026-05-06 19:36 | 48.05679 | 44.41656 | 40935 ft | 497 kts | 335° |
| 2026-05-06 19:37 | 48.11935 | 44.37249 | 40943 ft | 497 kts | 335° |
| 2026-05-06 19:37 | 48.17136 | 44.33576 | 40941 ft | 497 kts | 335° |
| 2026-05-06 19:38 | 48.24441 | 44.28404 | 40927 ft | 497 kts | 335° |
| 2026-05-06 19:38 | 48.30654 | 44.23991 | 40935 ft | 497 kts | 335° |
| 2026-05-06 19:39 | 48.36898 | 44.19545 | 40928 ft | 497 kts | 335° |
| 2026-05-06 19:39 | 48.43140 | 44.15088 | 40936 ft | 496 kts | 335° |
| 2026-05-06 19:40 | 48.49376 | 44.10623 | 40926 ft | 496 kts | 335° |
| 2026-05-06 19:40 | 48.55600 | 44.06155 | 40938 ft | 496 kts | 335° |
| 2026-05-06 19:41 | 48.61829 | 44.01670 | 40924 ft | 496 kts | 335° |
| 2026-05-06 19:41 | 48.68050 | 43.97179 | 40938 ft | 495 kts | 335° |
| 2026-05-06 19:42 | 48.74266 | 43.92680 | 40924 ft | 495 kts | 334° |
| 2026-05-06 19:42 | 48.80486 | 43.88165 | 40935 ft | 495 kts | 334° |
| 2026-05-06 19:43 | 48.86698 | 43.83642 | 40934 ft | 495 kts | 334° |
| 2026-05-06 19:43 | 48.92901 | 43.79114 | 40927 ft | 495 kts | 334° |
| 2026-05-06 19:44 | 48.99100 | 43.74577 | 40927 ft | 494 kts | 334° |
| 2026-05-06 19:44 | 49.05305 | 43.70022 | 40924 ft | 494 kts | 334° |
| 2026-05-06 19:45 | 49.11496 | 43.65465 | 40931 ft | 494 kts | 334° |
| 2026-05-06 19:45 | 49.17689 | 43.60895 | 40925 ft | 494 kts | 334° |
| 2026-05-06 19:46 | 49.23871 | 43.56319 | 40919 ft | 493 kts | 334° |
| 2026-05-06 19:46 | 49.30043 | 43.51738 | 40930 ft | 493 kts | 334° |
| 2026-05-06 19:47 | 49.36175 | 43.47173 | 40923 ft | 493 kts | 334° |
| 2026-05-06 19:47 | 49.42334 | 43.42576 | 40931 ft | 492 kts | 334° |
| 2026-05-06 19:48 | 49.48495 | 43.37964 | 40929 ft | 492 kts | 334° |
| 2026-05-06 19:48 | 49.54654 | 43.33341 | 40923 ft | 492 kts | 334° |
| 2026-05-06 19:49 | 49.60801 | 43.28714 | 40925 ft | 492 kts | 334° |
| 2026-05-06 19:49 | 49.66956 | 43.24068 | 40928 ft | 491 kts | 334° |
| 2026-05-06 19:50 | 49.73095 | 43.19421 | 40919 ft | 491 kts | 334° |
| 2026-05-06 19:50 | 49.79224 | 43.14769 | 40922 ft | 491 kts | 334° |
| 2026-05-06 19:51 | 49.85338 | 43.10114 | 40917 ft | 490 kts | 334° |
| 2026-05-06 19:51 | 49.91461 | 43.05439 | 40920 ft | 490 kts | 334° |
| 2026-05-06 19:52 | 49.97582 | 43.00753 | 40917 ft | 490 kts | 334° |
| 2026-05-06 19:52 | 50.03697 | 42.96058 | 40911 ft | 490 kts | 334° |
| 2026-05-06 19:53 | 50.13681 | 42.88364 | 40906 ft | 490 kts | 334° |
| 2026-05-06 19:54 | 50.25985 | 42.78832 | 40903 ft | 489 kts | 334° |
| 2026-05-06 19:55 | 50.32088 | 42.74082 | 40864 ft | 489 kts | 334° |
| 2026-05-06 19:55 | 50.35119 | 42.71718 | 40565 ft | 485 kts | 334° |
| 2026-05-06 19:55 | 50.38132 | 42.69365 | 40109 ft | 482 kts | 334° |
| 2026-05-06 19:56 | 50.41133 | 42.67017 | 39937 ft | 484 kts | 334° |
| 2026-05-06 19:56 | 50.44152 | 42.64653 | 39908 ft | 487 kts | 334° |
| 2026-05-06 19:56 | 50.50229 | 42.59885 | 39910 ft | 488 kts | 334° |
| 2026-05-06 19:57 | 50.56106 | 42.54559 | 39909 ft | 488 kts | 327° |
| 2026-05-06 19:57 | 50.61181 | 42.49240 | 39910 ft | 487 kts | 326° |
| 2026-05-06 19:58 | 50.66848 | 42.43135 | 39908 ft | 487 kts | 326° |
| 2026-05-06 19:58 | 50.72551 | 42.36969 | 39908 ft | 487 kts | 326° |
| 2026-05-06 19:59 | 50.78142 | 42.30930 | 39905 ft | 486 kts | 326° |
| 2026-05-06 19:59 | 50.83728 | 42.24891 | 39913 ft | 486 kts | 326° |
| 2026-05-06 20:00 | 50.89308 | 42.18842 | 39912 ft | 486 kts | 326° |
| 2026-05-06 20:00 | 50.94876 | 42.12788 | 39904 ft | 485 kts | 326° |
| 2026-05-06 20:01 | 51.00440 | 42.06720 | 39904 ft | 485 kts | 326° |
| 2026-05-06 20:01 | 51.06003 | 42.00633 | 39912 ft | 485 kts | 326° |
| 2026-05-06 20:02 | 51.11555 | 41.94542 | 39909 ft | 485 kts | 325° |
| 2026-05-06 20:02 | 51.17110 | 41.88429 | 39906 ft | 485 kts | 325° |
| 2026-05-06 20:03 | 51.22667 | 41.82295 | 39907 ft | 485 kts | 325° |
| 2026-05-06 20:03 | 51.28209 | 41.76160 | 39909 ft | 485 kts | 325° |
| 2026-05-06 20:04 | 51.33717 | 41.70044 | 39909 ft | 485 kts | 325° |
| 2026-05-06 20:04 | 51.39255 | 41.63876 | 39910 ft | 485 kts | 325° |
| 2026-05-06 20:05 | 51.44787 | 41.57697 | 39911 ft | 484 kts | 325° |
| 2026-05-06 20:05 | 51.50313 | 41.51505 | 39920 ft | 484 kts | 325° |
| 2026-05-06 20:06 | 51.55835 | 41.45300 | 39913 ft | 484 kts | 325° |
| 2026-05-06 20:06 | 51.61352 | 41.39080 | 39914 ft | 484 kts | 324° |
| 2026-05-06 20:07 | 51.66867 | 41.32845 | 39913 ft | 484 kts | 324° |
| 2026-05-06 20:07 | 51.72339 | 41.26650 | 39914 ft | 484 kts | 324° |
| 2026-05-06 20:08 | 51.77841 | 41.20393 | 39918 ft | 483 kts | 324° |
| 2026-05-06 20:08 | 51.83337 | 41.14121 | 39913 ft | 483 kts | 324° |
| 2026-05-06 20:09 | 51.88835 | 41.07831 | 39912 ft | 483 kts | 324° |
| 2026-05-06 20:09 | 51.94323 | 41.01535 | 39913 ft | 483 kts | 324° |
| 2026-05-06 20:10 | 51.99802 | 40.95231 | 39915 ft | 483 kts | 324° |
| 2026-05-06 20:10 | 52.05362 | 40.89133 | 39910 ft | 483 kts | 329° |
| 2026-05-06 20:11 | 52.11171 | 40.83651 | 39910 ft | 483 kts | 330° |
| 2026-05-06 20:11 | 52.16987 | 40.78312 | 39909 ft | 482 kts | 330° |
| 2026-05-06 20:12 | 52.22842 | 40.72945 | 39910 ft | 482 kts | 330° |
| 2026-05-06 20:12 | 52.28685 | 40.67551 | 39909 ft | 482 kts | 330° |
| 2026-05-06 20:13 | 52.34516 | 40.62139 | 39907 ft | 482 kts | 329° |
| 2026-05-06 20:13 | 52.40341 | 40.56716 | 39911 ft | 481 kts | 329° |
| 2026-05-06 20:14 | 52.46132 | 40.51294 | 39908 ft | 481 kts | 329° |
| 2026-05-06 20:14 | 52.51959 | 40.45833 | 39901 ft | 481 kts | 329° |
| 2026-05-06 20:15 | 52.57776 | 40.40401 | 39901 ft | 481 kts | 329° |
| 2026-05-06 20:15 | 52.63586 | 40.34964 | 39903 ft | 481 kts | 329° |
| 2026-05-06 20:16 | 52.69398 | 40.29506 | 39900 ft | 481 kts | 329° |
| 2026-05-06 20:16 | 52.75211 | 40.24029 | 39909 ft | 480 kts | 329° |
| 2026-05-06 20:17 | 52.81014 | 40.18544 | 39897 ft | 480 kts | 329° |
| 2026-05-06 20:17 | 52.86818 | 40.13050 | 39905 ft | 480 kts | 329° |
| 2026-05-06 20:18 | 52.92559 | 40.07589 | 39904 ft | 480 kts | 329° |
| 2026-05-06 20:18 | 52.98394 | 40.02020 | 39906 ft | 480 kts | 329° |
| 2026-05-06 20:19 | 53.04142 | 39.96519 | 39908 ft | 480 kts | 329° |
| 2026-05-06 20:19 | 53.09923 | 39.90971 | 39913 ft | 480 kts | 329° |
| 2026-05-06 20:20 | 53.15701 | 39.85408 | 39908 ft | 479 kts | 329° |
| 2026-05-06 20:20 | 53.21472 | 39.79835 | 39896 ft | 480 kts | 329° |
| 2026-05-06 20:21 | 53.27240 | 39.74247 | 39901 ft | 479 kts | 329° |
| 2026-05-06 20:21 | 53.33011 | 39.68639 | 39905 ft | 479 kts | 328° |
| 2026-05-06 20:22 | 53.38779 | 39.63016 | 39901 ft | 479 kts | 328° |
| 2026-05-06 20:22 | 53.44569 | 39.57488 | 39912 ft | 479 kts | 330° |
| 2026-05-06 20:23 | 53.50535 | 39.52441 | 39911 ft | 480 kts | 332° |
| 2026-05-06 20:23 | 53.56477 | 39.47536 | 39913 ft | 479 kts | 332° |
| 2026-05-06 20:24 | 53.62457 | 39.42514 | 39917 ft | 479 kts | 332° |
| 2026-05-06 20:24 | 53.68407 | 39.37444 | 39700 ft | 476 kts | 332° |
| 2026-05-06 20:25 | 53.71349 | 39.34925 | 39152 ft | 474 kts | 331° |
| 2026-05-06 20:25 | 53.74288 | 39.32405 | 38604 ft | 473 kts | 331° |
| 2026-05-06 20:25 | 53.77223 | 39.29883 | 37894 ft | 472 kts | 332° |
| 2026-05-06 20:25 | 53.80152 | 39.27362 | 37129 ft | 473 kts | 332° |
| 2026-05-06 20:26 | 53.83078 | 39.24840 | 36337 ft | 474 kts | 332° |
| 2026-05-06 20:26 | 53.86036 | 39.22289 | 35556 ft | 476 kts | 332° |
| 2026-05-06 20:26 | 53.88992 | 39.19739 | 34778 ft | 477 kts | 332° |
| 2026-05-06 20:26 | 53.91958 | 39.17185 | 34001 ft | 479 kts | 333° |
| 2026-05-06 20:27 | 53.94934 | 39.14621 | 33126 ft | 480 kts | 333° |
| 2026-05-06 20:27 | 53.97914 | 39.12054 | 32239 ft | 481 kts | 333° |
| 2026-05-06 20:27 | 54.00909 | 39.09461 | 31396 ft | 482 kts | 333° |
| 2026-05-06 20:27 | 54.03867 | 39.06890 | 31026 ft | 473 kts | 333° |
| 2026-05-06 20:28 | 54.06759 | 39.04368 | 30767 ft | 461 kts | 333° |
| 2026-05-06 20:28 | 54.09583 | 39.01901 | 30520 ft | 451 kts | 333° |
| 2026-05-06 20:28 | 54.11417 | 39.00295 | 30376 ft | 444 kts | 333° |
| 2026-05-06 20:28 | 54.14129 | 38.97917 | 30165 ft | 433 kts | 333° |
| 2026-05-06 20:29 | 54.16783 | 38.95586 | 29901 ft | 424 kts | 333° |
| 2026-05-06 20:29 | 54.20228 | 38.92558 | 29317 ft | 418 kts | 332° |
| 2026-05-06 20:29 | 54.22795 | 38.90296 | 28848 ft | 414 kts | 332° |
| 2026-05-06 20:29 | 54.24524 | 38.88777 | 28528 ft | 411 kts | 332° |
| 2026-05-06 20:30 | 54.27045 | 38.86613 | 28062 ft | 408 kts | 333° |
| 2026-05-06 20:30 | 54.32092 | 38.82313 | 27139 ft | 402 kts | 333° |
| 2026-05-06 20:30 | 54.34581 | 38.80193 | 26934 ft | 399 kts | 333° |
| 2026-05-06 20:31 | 54.37068 | 38.78076 | 26916 ft | 400 kts | 333° |
| 2026-05-06 20:31 | 54.39556 | 38.75953 | 26783 ft | 398 kts | 333° |
| 2026-05-06 20:31 | 54.42034 | 38.73835 | 26324 ft | 396 kts | 333° |
| 2026-05-06 20:31 | 54.44489 | 38.71739 | 25865 ft | 394 kts | 333° |
| 2026-05-06 20:32 | 54.47757 | 38.68943 | 25287 ft | 390 kts | 332° |
| 2026-05-06 20:32 | 54.49365 | 38.67563 | 24990 ft | 388 kts | 332° |
| 2026-05-06 20:32 | 54.51780 | 38.65492 | 24571 ft | 386 kts | 332° |
| 2026-05-06 20:32 | 54.54167 | 38.63433 | 24157 ft | 383 kts | 332° |
| 2026-05-06 20:33 | 54.56543 | 38.61379 | 23744 ft | 381 kts | 332° |
| 2026-05-06 20:33 | 54.58864 | 38.59366 | 23299 ft | 378 kts | 332° |
| 2026-05-06 20:33 | 54.61216 | 38.57324 | 22810 ft | 375 kts | 332° |
| 2026-05-06 20:33 | 54.63538 | 38.55306 | 22345 ft | 372 kts | 332° |
| 2026-05-06 20:34 | 54.65871 | 38.53277 | 21858 ft | 369 kts | 331° |
| 2026-05-06 20:34 | 54.68130 | 38.51312 | 21404 ft | 367 kts | 331° |
| 2026-05-06 20:34 | 54.70397 | 38.49335 | 20960 ft | 364 kts | 331° |
| 2026-05-06 20:34 | 54.72649 | 38.47371 | 20515 ft | 361 kts | 331° |
| 2026-05-06 20:35 | 54.74885 | 38.45428 | 20045 ft | 358 kts | 331° |
| 2026-05-06 20:35 | 54.77109 | 38.43502 | 19619 ft | 356 kts | 331° |
| 2026-05-06 20:35 | 54.79313 | 38.41591 | 19184 ft | 353 kts | 331° |
| 2026-05-06 20:35 | 54.81501 | 38.39691 | 18758 ft | 351 kts | 331° |
| 2026-05-06 20:36 | 54.83672 | 38.37766 | 18325 ft | 348 kts | 329° |
| 2026-05-06 20:36 | 54.85659 | 38.35427 | 17839 ft | 343 kts | 317° |
| 2026-05-06 20:36 | 54.87364 | 38.32645 | 17390 ft | 339 kts | 313° |
| 2026-05-06 20:36 | 54.89029 | 38.29700 | 17005 ft | 335 kts | 312° |
| 2026-05-06 20:37 | 54.90628 | 38.26851 | 16907 ft | 336 kts | 313° |
| 2026-05-06 20:37 | 54.92432 | 38.24205 | 16763 ft | 340 kts | 321° |
| 2026-05-06 20:37 | 54.94397 | 38.21867 | 15988 ft | 346 kts | 324° |
| 2026-05-06 20:37 | 54.96460 | 38.19579 | 15086 ft | 356 kts | 325° |
| 2026-05-06 20:38 | 54.98580 | 38.17284 | 14447 ft | 357 kts | 326° |
| 2026-05-06 20:38 | 55.00663 | 38.15054 | 14243 ft | 345 kts | 326° |
| 2026-05-06 20:38 | 55.02672 | 38.12899 | 14039 ft | 333 kts | 326° |
| 2026-05-06 20:38 | 55.04612 | 38.10810 | 13874 ft | 321 kts | 326° |
| 2026-05-06 20:39 | 55.06482 | 38.08790 | 13702 ft | 310 kts | 325° |
| 2026-05-06 20:39 | 55.08372 | 38.07038 | 13259 ft | 309 kts | 332° |
| 2026-05-06 20:39 | 55.10397 | 38.05519 | 12489 ft | 332 kts | 334° |
| 2026-05-06 20:39 | 55.12646 | 38.03913 | 12015 ft | 370 kts | 335° |
| 2026-05-06 20:40 | 55.15093 | 38.02251 | 11897 ft | 381 kts | 336° |
| 2026-05-06 20:40 | 55.17573 | 38.00606 | 11922 ft | 381 kts | 336° |
| 2026-05-06 20:40 | 55.20049 | 37.98969 | 11904 ft | 380 kts | 336° |
| 2026-05-06 20:40 | 55.22530 | 37.97328 | 11984 ft | 380 kts | 336° |
| 2026-05-06 20:41 | 55.25003 | 37.95689 | 11993 ft | 380 kts | 336° |
| 2026-05-06 20:41 | 55.27475 | 37.94049 | 12000 ft | 380 kts | 336° |
| 2026-05-06 20:41 | 55.29946 | 37.92407 | 11999 ft | 380 kts | 336° |
| 2026-05-06 20:41 | 55.32419 | 37.90761 | 12000 ft | 380 kts | 336° |
| 2026-05-06 20:42 | 55.34892 | 37.89111 | 11999 ft | 380 kts | 336° |
| 2026-05-06 20:42 | 55.37363 | 37.87461 | 12003 ft | 380 kts | 336° |
| 2026-05-06 20:42 | 55.39838 | 37.85807 | 11999 ft | 380 kts | 336° |
| 2026-05-06 20:42 | 55.42311 | 37.84152 | 12003 ft | 380 kts | 336° |
| 2026-05-06 20:43 | 55.44784 | 37.82495 | 11999 ft | 380 kts | 336° |
| 2026-05-06 20:43 | 55.47255 | 37.80836 | 11998 ft | 380 kts | 336° |
| 2026-05-06 20:43 | 55.49728 | 37.79175 | 12002 ft | 380 kts | 336° |
| 2026-05-06 20:43 | 55.52195 | 37.77515 | 11973 ft | 379 kts | 336° |
| 2026-05-06 20:44 | 55.54601 | 37.75896 | 11421 ft | 372 kts | 336° |
| 2026-05-06 20:44 | 55.57010 | 37.74272 | 10828 ft | 367 kts | 336° |
| 2026-05-06 20:44 | 55.59350 | 37.72695 | 10538 ft | 353 kts | 335° |
| 2026-05-06 20:44 | 55.61597 | 37.71179 | 10303 ft | 339 kts | 335° |
| 2026-05-06 20:45 | 55.63757 | 37.69718 | 10080 ft | 326 kts | 335° |
| 2026-05-06 20:45 | 55.65837 | 37.68310 | 9865 ft | 314 kts | 335° |
| 2026-05-06 20:45 | 55.67835 | 37.66954 | 9654 ft | 302 kts | 335° |
| 2026-05-06 20:45 | 55.69756 | 37.65646 | 9442 ft | 291 kts | 335° |
| 2026-05-06 20:46 | 55.71627 | 37.64369 | 9114 ft | 285 kts | 335° |
| 2026-05-06 20:46 | 55.73467 | 37.63104 | 8725 ft | 283 kts | 334° |
| 2026-05-06 20:46 | 55.75293 | 37.61836 | 8321 ft | 280 kts | 334° |
| 2026-05-06 20:46 | 55.77104 | 37.60584 | 7948 ft | 278 kts | 334° |
| 2026-05-06 20:47 | 55.78900 | 37.59347 | 7540 ft | 276 kts | 334° |
| 2026-05-06 20:47 | 55.80692 | 37.58116 | 7154 ft | 275 kts | 334° |
| 2026-05-06 20:47 | 55.82467 | 37.56897 | 6764 ft | 273 kts | 335° |
| 2026-05-06 20:47 | 55.84238 | 37.55682 | 6378 ft | 271 kts | 335° |
| 2026-05-06 20:48 | 55.85995 | 37.54476 | 5982 ft | 270 kts | 335° |
| 2026-05-06 20:48 | 55.87746 | 37.53271 | 5555 ft | 270 kts | 335° |
| 2026-05-06 20:48 | 55.89493 | 37.52068 | 5162 ft | 268 kts | 335° |
| 2026-05-06 20:48 | 55.91210 | 37.50887 | 4840 ft | 267 kts | 336° |
| 2026-05-06 20:49 | 55.92943 | 37.49690 | 4386 ft | 267 kts | 336° |
| 2026-05-06 20:49 | 55.94677 | 37.48491 | 3972 ft | 267 kts | 337° |
| 2026-05-06 20:49 | 55.96412 | 37.47293 | 3537 ft | 267 kts | 338° |
| 2026-05-06 20:49 | 55.98146 | 37.46092 | 3113 ft | 268 kts | 339° |
| 2026-05-06 20:50 | 55.99884 | 37.44888 | 2715 ft | 266 kts | 339° |
| 2026-05-06 20:50 | 56.01594 | 37.43707 | 2525 ft | 262 kts | 340° |
| 2026-05-06 20:50 | 56.03302 | 37.42526 | 2497 ft | 264 kts | 340° |
| 2026-05-06 20:50 | 56.05020 | 37.41339 | 2495 ft | 262 kts | 340° |
| 2026-05-06 20:51 | 56.06667 | 37.40198 | 2503 ft | 245 kts | 340° |
| 2026-05-06 20:51 | 56.08211 | 37.39127 | 2508 ft | 232 kts | 340° |
| 2026-05-06 20:51 | 56.09710 | 37.38088 | 2505 ft | 231 kts | 340° |
| 2026-05-06 20:51 | 56.11215 | 37.37046 | 2500 ft | 232 kts | 340° |
| 2026-05-06 20:52 | 56.12720 | 37.36000 | 2503 ft | 233 kts | 340° |
| 2026-05-06 20:52 | 56.14171 | 37.34698 | 2493 ft | 235 kts | 326° |
| 2026-05-06 20:52 | 56.15205 | 37.32437 | 2500 ft | 239 kts | 295° |
| 2026-05-06 20:52 | 56.15448 | 37.29564 | 2508 ft | 239 kts | 264° |
| 2026-05-06 20:53 | 56.15117 | 37.26638 | 2499 ft | 239 kts | 255° |
| 2026-05-06 20:53 | 56.14683 | 37.23758 | 2498 ft | 239 kts | 254° |
| 2026-05-06 20:53 | 56.14246 | 37.20882 | 2499 ft | 239 kts | 255° |
| 2026-05-06 20:53 | 56.13818 | 37.18000 | 2501 ft | 239 kts | 254° |
| 2026-05-06 20:54 | 56.13390 | 37.15130 | 2500 ft | 239 kts | 254° |
| 2026-05-06 20:54 | 56.12961 | 37.12231 | 2497 ft | 239 kts | 254° |
| 2026-05-06 20:54 | 56.12539 | 37.09341 | 2501 ft | 240 kts | 254° |
| 2026-05-06 20:54 | 56.12078 | 37.06479 | 2499 ft | 239 kts | 248° |
| 2026-05-06 20:55 | 56.11167 | 37.04030 | 2498 ft | 236 kts | 221° |
| 2026-05-06 20:55 | 56.09863 | 37.02277 | 2503 ft | 234 kts | 212° |
| 2026-05-06 20:55 | 56.08490 | 37.00696 | 2498 ft | 235 kts | 211° |
| 2026-05-06 20:55 | 56.07117 | 36.99128 | 2497 ft | 235 kts | 211° |
| 2026-05-06 20:56 | 56.05741 | 36.97548 | 2497 ft | 235 kts | 211° |
| 2026-05-06 20:56 | 56.04373 | 36.95970 | 2497 ft | 234 kts | 211° |
| 2026-05-06 20:56 | 56.03008 | 36.94389 | 2498 ft | 230 kts | 211° |
| 2026-05-06 20:56 | 56.01718 | 36.92885 | 2496 ft | 213 kts | 211° |
| 2026-05-06 20:57 | 56.00487 | 36.91544 | 2499 ft | 202 kts | 203° |
| 2026-05-06 20:57 | 55.99146 | 36.91068 | 2495 ft | 196 kts | 171° |
| 2026-05-06 20:57 | 55.97902 | 36.91925 | 2502 ft | 192 kts | 147° |
| 2026-05-06 20:57 | 55.96800 | 36.93261 | 2499 ft | 192 kts | 143° |
| 2026-05-06 20:58 | 55.95729 | 36.94638 | 2494 ft | 192 kts | 142° |
| 2026-05-06 20:58 | 55.94642 | 36.96030 | 2493 ft | 192 kts | 143° |
| 2026-05-06 20:58 | 55.93564 | 36.97392 | 2492 ft | 192 kts | 143° |
| 2026-05-06 20:58 | 55.92472 | 36.98762 | 2489 ft | 191 kts | 142° |
| 2026-05-06 20:59 | 55.91562 | 37.00376 | 2504 ft | 179 kts | 120° |
| 2026-05-06 20:59 | 55.91257 | 37.02464 | 2518 ft | 177 kts | 89° |
| 2026-05-06 20:59 | 55.91477 | 37.04639 | 2503 ft | 179 kts | 77° |
| 2026-05-06 20:59 | 55.91820 | 37.06775 | 2509 ft | 178 kts | 75° |
| 2026-05-06 21:00 | 55.92177 | 37.08877 | 2502 ft | 178 kts | 73° |
| 2026-05-06 21:00 | 55.92539 | 37.11009 | 2498 ft | 179 kts | 74° |